sensor_id;sensor_type;location;lat;lon;timestamp;temperature;humidity
12053;DHT22;6087;48.982;12.064;2023-09-08T00:00:38;19.70;1.00
12053;DHT22;6087;48.982;12.064;2023-09-08T00:03:05;19.70;1.00
12053;DHT22;6087;48.982;12.064;2023-09-08T00:05:32;19.70;1.00
12053;DHT22;6087;48.982;12.064;2023-09-08T00:08:00;19.70;1.00
12053;DHT22;6087;48.982;12.064;2023-09-08T00:10:27;19.70;1.00
12053;DHT22;6087;48.982;12.064;2023-09-08T00:13:02;19.70;1.00
12053;DHT22;6087;48.982;12.064;2023-09-08T00:15:29;19.70;1.00
12053;DHT22;6087;48.982;12.064;2023-09-08T00:17:56;19.70;1.00
12053;DHT22;6087;48.982;12.064;2023-09-08T00:20:23;19.70;1.00
12053;DHT22;6087;48.982;12.064;2023-09-08T00:22:50;19.70;1.00
12053;DHT22;6087;48.982;12.064;2023-09-08T00:25:18;19.70;1.00
12053;DHT22;6087;48.982;12.064;2023-09-08T00:27:45;19.60;1.00
12053;DHT22;6087;48.982;12.064;2023-09-08T00:30:12;19.60;1.00
12053;DHT22;6087;48.982;12.064;2023-09-08T00:32:40;19.60;1.00
12053;DHT22;6087;48.982;12.064;2023-09-08T00:35:07;19.60;1.00
12053;DHT22;6087;48.982;12.064;2023-09-08T00:37:37;19.60;1.00
12053;DHT22;6087;48.982;12.064;2023-09-08T00:40:05;19.60;1.00
12053;DHT22;6087;48.982;12.064;2023-09-08T00:42:34;19.60;1.00
12053;DHT22;6087;48.982;12.064;2023-09-08T00:45:02;19.60;1.00
12053;DHT22;6087;48.982;12.064;2023-09-08T00:47:29;19.60;1.00
12053;DHT22;6087;48.982;12.064;2023-09-08T00:49:56;19.50;1.00
12053;DHT22;6087;48.982;12.064;2023-09-08T00:52:25;19.60;1.00
12053;DHT22;6087;48.982;12.064;2023-09-08T00:55:03;19.60;1.00
12053;DHT22;6087;48.982;12.064;2023-09-08T00:57:32;19.50;1.00
12053;DHT22;6087;48.982;12.064;2023-09-08T01:00:00;19.50;1.00
12053;DHT22;6087;48.982;12.064;2023-09-08T01:02:28;19.50;1.00
12053;DHT22;6087;48.982;12.064;2023-09-08T01:04:57;19.50;1.00
12053;DHT22;6087;48.982;12.064;2023-09-08T01:07:27;19.50;1.00
12053;DHT22;6087;48.982;12.064;2023-09-08T01:09:57;19.40;1.00
12053;DHT22;6087;48.982;12.064;2023-09-08T01:12:29;19.40;1.00
12053;DHT22;6087;48.982;12.064;2023-09-08T01:14:56;19.40;1.00
12053;DHT22;6087;48.982;12.064;2023-09-08T01:17:27;19.40;1.00
12053;DHT22;6087;48.982;12.064;2023-09-08T01:19:55;19.40;1.00
12053;DHT22;6087;48.982;12.064;2023-09-08T01:25:21;19.40;1.00
12053;DHT22;6087;48.982;12.064;2023-09-08T01:27:50;19.40;1.00
12053;DHT22;6087;48.982;12.064;2023-09-08T01:30:18;19.40;1.00
12053;DHT22;6087;48.982;12.064;2023-09-08T01:32:44;19.40;1.00
12053;DHT22;6087;48.982;12.064;2023-09-08T01:35:13;19.30;1.00
12053;DHT22;6087;48.982;12.064;2023-09-08T01:37:40;19.30;1.00
12053;DHT22;6087;48.982;12.064;2023-09-08T01:40:09;19.30;1.00
12053;DHT22;6087;48.982;12.064;2023-09-08T01:42:38;19.30;1.00
12053;DHT22;6087;48.982;12.064;2023-09-08T01:45:05;19.20;1.00
12053;DHT22;6087;48.982;12.064;2023-09-08T01:47:32;19.20;1.00
12053;DHT22;6087;48.982;12.064;2023-09-08T01:50:00;19.20;1.00
12053;DHT22;6087;48.982;12.064;2023-09-08T01:52:27;19.20;1.00
12053;DHT22;6087;48.982;12.064;2023-09-08T01:54:54;19.20;1.00
12053;DHT22;6087;48.982;12.064;2023-09-08T01:57:20;19.20;1.00
12053;DHT22;6087;48.982;12.064;2023-09-08T01:59:48;19.20;1.00
12053;DHT22;6087;48.982;12.064;2023-09-08T02:02:14;19.20;1.00
12053;DHT22;6087;48.982;12.064;2023-09-08T02:04:42;19.10;1.00
12053;DHT22;6087;48.982;12.064;2023-09-08T02:07:09;19.10;1.00
12053;DHT22;6087;48.982;12.064;2023-09-08T02:09:37;19.00;1.00
12053;DHT22;6087;48.982;12.064;2023-09-08T02:12:04;19.10;1.00
12053;DHT22;6087;48.982;12.064;2023-09-08T02:14:34;19.00;1.00
12053;DHT22;6087;48.982;12.064;2023-09-08T02:17:02;19.00;1.00
12053;DHT22;6087;48.982;12.064;2023-09-08T02:19:29;19.00;1.00
12053;DHT22;6087;48.982;12.064;2023-09-08T02:21:56;19.00;1.00
12053;DHT22;6087;48.982;12.064;2023-09-08T02:24:23;19.00;1.00
12053;DHT22;6087;48.982;12.064;2023-09-08T02:26:50;18.90;1.10
12053;DHT22;6087;48.982;12.064;2023-09-08T02:29:17;18.90;1.00
12053;DHT22;6087;48.982;12.064;2023-09-08T02:31:44;18.90;1.30
12053;DHT22;6087;48.982;12.064;2023-09-08T02:34:12;18.90;1.00
12053;DHT22;6087;48.982;12.064;2023-09-08T02:36:39;18.90;1.00
12053;DHT22;6087;48.982;12.064;2023-09-08T02:39:06;18.90;1.00
12053;DHT22;6087;48.982;12.064;2023-09-08T02:41:33;18.90;1.00
12053;DHT22;6087;48.982;12.064;2023-09-08T02:44:00;18.90;1.00
12053;DHT22;6087;48.982;12.064;2023-09-08T02:46:27;18.90;1.00
12053;DHT22;6087;48.982;12.064;2023-09-08T02:48:54;18.90;1.00
12053;DHT22;6087;48.982;12.064;2023-09-08T02:51:22;18.90;1.00
12053;DHT22;6087;48.982;12.064;2023-09-08T02:53:49;18.90;1.00
12053;DHT22;6087;48.982;12.064;2023-09-08T02:56:16;18.90;1.00
12053;DHT22;6087;48.982;12.064;2023-09-08T02:58:43;18.90;1.00
12053;DHT22;6087;48.982;12.064;2023-09-08T03:01:12;18.90;1.50
12053;DHT22;6087;48.982;12.064;2023-09-08T03:03:40;18.90;1.00
12053;DHT22;6087;48.982;12.064;2023-09-08T03:06:07;18.90;1.00
12053;DHT22;6087;48.982;12.064;2023-09-08T03:08:36;18.90;1.00
12053;DHT22;6087;48.982;12.064;2023-09-08T03:11:03;18.90;1.50
12053;DHT22;6087;48.982;12.064;2023-09-08T03:13:31;18.80;1.00
12053;DHT22;6087;48.982;12.064;2023-09-08T03:16:02;18.90;1.00
12053;DHT22;6087;48.982;12.064;2023-09-08T03:18:29;18.80;1.10
12053;DHT22;6087;48.982;12.064;2023-09-08T03:20:58;18.80;1.10
12053;DHT22;6087;48.982;12.064;2023-09-08T03:23:25;18.80;1.00
12053;DHT22;6087;48.982;12.064;2023-09-08T03:25:55;18.70;1.00
12053;DHT22;6087;48.982;12.064;2023-09-08T03:28:22;18.70;1.00
12053;DHT22;6087;48.982;12.064;2023-09-08T03:30:49;18.70;1.00
12053;DHT22;6087;48.982;12.064;2023-09-08T03:33:16;18.70;1.30
12053;DHT22;6087;48.982;12.064;2023-09-08T03:35:42;18.60;1.40
12053;DHT22;6087;48.982;12.064;2023-09-08T03:38:09;18.60;1.40
12053;DHT22;6087;48.982;12.064;2023-09-08T03:40:40;18.60;1.60
12053;DHT22;6087;48.982;12.064;2023-09-08T03:43:08;18.60;1.80
12053;DHT22;6087;48.982;12.064;2023-09-08T03:45:35;18.60;1.90
12053;DHT22;6087;48.982;12.064;2023-09-08T03:48:02;18.60;1.90
12053;DHT22;6087;48.982;12.064;2023-09-08T03:50:29;18.50;2.00
12053;DHT22;6087;48.982;12.064;2023-09-08T03:52:59;18.50;2.00
12053;DHT22;6087;48.982;12.064;2023-09-08T03:55:26;18.40;2.10
12053;DHT22;6087;48.982;12.064;2023-09-08T03:57:53;18.40;2.40
12053;DHT22;6087;48.982;12.064;2023-09-08T04:00:21;18.40;2.60
12053;DHT22;6087;48.982;12.064;2023-09-08T04:02:53;18.40;2.60
12053;DHT22;6087;48.982;12.064;2023-09-08T04:05:20;18.30;2.90
12053;DHT22;6087;48.982;12.064;2023-09-08T04:07:47;18.30;2.90
12053;DHT22;6087;48.982;12.064;2023-09-08T04:10:14;18.30;3.00
12053;DHT22;6087;48.982;12.064;2023-09-08T04:12:41;18.30;3.10
12053;DHT22;6087;48.982;12.064;2023-09-08T04:15:09;18.20;3.30
12053;DHT22;6087;48.982;12.064;2023-09-08T04:17:37;18.20;3.50
12053;DHT22;6087;48.982;12.064;2023-09-08T04:20:05;18.20;3.80
12053;DHT22;6087;48.982;12.064;2023-09-08T04:22:33;18.10;3.80
12053;DHT22;6087;48.982;12.064;2023-09-08T04:25:01;18.10;4.20
12053;DHT22;6087;48.982;12.064;2023-09-08T04:27:28;18.10;4.00
12053;DHT22;6087;48.982;12.064;2023-09-08T04:29:55;18.10;4.10
12053;DHT22;6087;48.982;12.064;2023-09-08T04:32:21;18.10;4.40
12053;DHT22;6087;48.982;12.064;2023-09-08T04:34:50;18.00;4.40
12053;DHT22;6087;48.982;12.064;2023-09-08T04:37:17;18.00;4.40
12053;DHT22;6087;48.982;12.064;2023-09-08T04:39:44;18.00;4.70
12053;DHT22;6087;48.982;12.064;2023-09-08T04:42:11;18.00;4.90
12053;DHT22;6087;48.982;12.064;2023-09-08T04:44:38;17.90;5.30
12053;DHT22;6087;48.982;12.064;2023-09-08T04:47:05;17.90;5.40
12053;DHT22;6087;48.982;12.064;2023-09-08T04:49:32;17.90;5.70
12053;DHT22;6087;48.982;12.064;2023-09-08T04:52:00;17.90;5.90
12053;DHT22;6087;48.982;12.064;2023-09-08T04:54:27;17.90;6.10
12053;DHT22;6087;48.982;12.064;2023-09-08T04:56:54;17.80;6.40
12053;DHT22;6087;48.982;12.064;2023-09-08T04:59:21;17.80;6.50
12053;DHT22;6087;48.982;12.064;2023-09-08T05:01:48;17.80;6.80
12053;DHT22;6087;48.982;12.064;2023-09-08T05:04:16;17.80;6.80
12053;DHT22;6087;48.982;12.064;2023-09-08T05:06:43;17.80;6.90
12053;DHT22;6087;48.982;12.064;2023-09-08T05:09:14;17.80;7.80
12053;DHT22;6087;48.982;12.064;2023-09-08T05:11:42;17.70;7.50
12053;DHT22;6087;48.982;12.064;2023-09-08T05:14:09;17.70;7.60
12053;DHT22;6087;48.982;12.064;2023-09-08T05:16:36;17.70;8.00
12053;DHT22;6087;48.982;12.064;2023-09-08T05:19:05;17.70;8.30
12053;DHT22;6087;48.982;12.064;2023-09-08T05:21:33;17.70;8.70
12053;DHT22;6087;48.982;12.064;2023-09-08T05:24:07;17.70;8.80
12053;DHT22;6087;48.982;12.064;2023-09-08T05:26:37;17.70;9.20
12053;DHT22;6087;48.982;12.064;2023-09-08T05:29:10;17.70;9.40
12053;DHT22;6087;48.982;12.064;2023-09-08T05:31:37;17.70;9.80
12053;DHT22;6087;48.982;12.064;2023-09-08T05:34:04;17.70;10.00
12053;DHT22;6087;48.982;12.064;2023-09-08T05:36:31;17.70;10.50
12053;DHT22;6087;48.982;12.064;2023-09-08T05:39:00;17.70;10.80
12053;DHT22;6087;48.982;12.064;2023-09-08T05:41:27;17.70;11.10
12053;DHT22;6087;48.982;12.064;2023-09-08T05:43:56;17.70;11.10
12053;DHT22;6087;48.982;12.064;2023-09-08T05:46:23;17.70;10.80
12053;DHT22;6087;48.982;12.064;2023-09-08T05:48:50;17.70;11.20
12053;DHT22;6087;48.982;12.064;2023-09-08T05:51:16;17.70;11.50
12053;DHT22;6087;48.982;12.064;2023-09-08T05:53:52;17.80;12.00
12053;DHT22;6087;48.982;12.064;2023-09-08T05:56:20;17.80;12.30
12053;DHT22;6087;48.982;12.064;2023-09-08T05:58:48;17.70;12.60
12053;DHT22;6087;48.982;12.064;2023-09-08T06:01:19;17.80;13.70
12053;DHT22;6087;48.982;12.064;2023-09-08T06:03:46;17.70;13.90
12053;DHT22;6087;48.982;12.064;2023-09-08T06:06:13;17.80;14.10
12053;DHT22;6087;48.982;12.064;2023-09-08T06:08:40;17.80;14.40
12053;DHT22;6087;48.982;12.064;2023-09-08T06:11:06;17.90;15.00
12053;DHT22;6087;48.982;12.064;2023-09-08T06:13:33;17.90;15.30
12053;DHT22;6087;48.982;12.064;2023-09-08T06:16:00;17.90;15.60
12053;DHT22;6087;48.982;12.064;2023-09-08T06:18:29;17.90;15.50
12053;DHT22;6087;48.982;12.064;2023-09-08T06:20:57;18.00;15.40
12053;DHT22;6087;48.982;12.064;2023-09-08T06:23:23;18.00;15.30
12053;DHT22;6087;48.982;12.064;2023-09-08T06:25:50;18.10;16.20
12053;DHT22;6087;48.982;12.064;2023-09-08T06:28:17;18.10;16.30
12053;DHT22;6087;48.982;12.064;2023-09-08T06:30:44;18.10;17.10
12053;DHT22;6087;48.982;12.064;2023-09-08T06:33:11;18.20;16.60
12053;DHT22;6087;48.982;12.064;2023-09-08T06:35:39;18.20;17.40
12053;DHT22;6087;48.982;12.064;2023-09-08T06:38:06;18.20;17.70
12053;DHT22;6087;48.982;12.064;2023-09-08T06:40:33;18.30;18.30
12053;DHT22;6087;48.982;12.064;2023-09-08T06:43:00;18.30;18.10
12053;DHT22;6087;48.982;12.064;2023-09-08T06:45:27;18.40;17.90
12053;DHT22;6087;48.982;12.064;2023-09-08T06:47:54;18.40;19.00
12053;DHT22;6087;48.982;12.064;2023-09-08T06:50:21;18.40;19.20
12053;DHT22;6087;48.982;12.064;2023-09-08T06:52:50;18.40;19.10
12053;DHT22;6087;48.982;12.064;2023-09-08T06:55:17;18.50;19.50
12053;DHT22;6087;48.982;12.064;2023-09-08T06:57:45;18.50;18.40
12053;DHT22;6087;48.982;12.064;2023-09-08T07:00:13;18.50;18.30
12053;DHT22;6087;48.982;12.064;2023-09-08T07:02:42;18.60;18.10
12053;DHT22;6087;48.982;12.064;2023-09-08T07:05:09;18.60;19.20
12053;DHT22;6087;48.982;12.064;2023-09-08T07:07:36;18.60;19.30
12053;DHT22;6087;48.982;12.064;2023-09-08T07:10:05;18.60;19.90
12053;DHT22;6087;48.982;12.064;2023-09-08T07:12:32;18.70;19.10
12053;DHT22;6087;48.982;12.064;2023-09-08T07:14:59;18.80;19.30
12053;DHT22;6087;48.982;12.064;2023-09-08T07:17:27;18.80;19.80
12053;DHT22;6087;48.982;12.064;2023-09-08T07:19:53;18.80;19.70
12053;DHT22;6087;48.982;12.064;2023-09-08T07:22:20;18.90;18.50
12053;DHT22;6087;48.982;12.064;2023-09-08T07:24:47;18.90;18.80
12053;DHT22;6087;48.982;12.064;2023-09-08T07:27:16;19.00;18.40
12053;DHT22;6087;48.982;12.064;2023-09-08T07:29:44;19.00;18.80
12053;DHT22;6087;48.982;12.064;2023-09-08T07:32:13;19.00;19.50
12053;DHT22;6087;48.982;12.064;2023-09-08T07:34:49;19.10;18.90
12053;DHT22;6087;48.982;12.064;2023-09-08T07:37:20;19.10;19.50
12053;DHT22;6087;48.982;12.064;2023-09-08T07:39:54;19.20;18.20
12053;DHT22;6087;48.982;12.064;2023-09-08T07:42:22;19.20;16.80
12053;DHT22;6087;48.982;12.064;2023-09-08T07:44:51;19.20;15.30
12053;DHT22;6087;48.982;12.064;2023-09-08T07:47:18;19.30;13.00
12053;DHT22;6087;48.982;12.064;2023-09-08T07:49:46;19.40;11.70
12053;DHT22;6087;48.982;12.064;2023-09-08T07:52:13;19.40;10.20
12053;DHT22;6087;48.982;12.064;2023-09-08T07:54:40;19.40;9.80
12053;DHT22;6087;48.982;12.064;2023-09-08T07:57:10;19.50;9.80
12053;DHT22;6087;48.982;12.064;2023-09-08T07:59:38;19.50;10.20
12053;DHT22;6087;48.982;12.064;2023-09-08T08:02:14;19.50;10.70
12053;DHT22;6087;48.982;12.064;2023-09-08T08:04:40;19.60;9.70
12053;DHT22;6087;48.982;12.064;2023-09-08T08:07:13;19.60;8.60
12053;DHT22;6087;48.982;12.064;2023-09-08T08:09:40;19.70;8.20
12053;DHT22;6087;48.982;12.064;2023-09-08T08:12:08;19.70;8.90
12053;DHT22;6087;48.982;12.064;2023-09-08T08:14:45;19.70;8.10
12053;DHT22;6087;48.982;12.064;2023-09-08T08:17:12;19.80;7.00
12053;DHT22;6087;48.982;12.064;2023-09-08T08:19:39;19.80;6.50
12053;DHT22;6087;48.982;12.064;2023-09-08T08:22:06;19.80;5.50
12053;DHT22;6087;48.982;12.064;2023-09-08T08:24:33;19.80;4.20
12053;DHT22;6087;48.982;12.064;2023-09-08T08:27:00;19.90;4.80
12053;DHT22;6087;48.982;12.064;2023-09-08T08:29:31;19.90;4.50
12053;DHT22;6087;48.982;12.064;2023-09-08T08:31:59;19.90;3.10
12053;DHT22;6087;48.982;12.064;2023-09-08T08:34:29;19.90;2.50
12053;DHT22;6087;48.982;12.064;2023-09-08T08:36:56;20.00;3.70
12053;DHT22;6087;48.982;12.064;2023-09-08T08:39:23;20.00;1.20
12053;DHT22;6087;48.982;12.064;2023-09-08T08:41:49;20.10;1.00
12053;DHT22;6087;48.982;12.064;2023-09-08T08:44:17;20.10;1.00
12053;DHT22;6087;48.982;12.064;2023-09-08T08:46:45;20.10;1.00
12053;DHT22;6087;48.982;12.064;2023-09-08T08:49:15;20.10;1.00
12053;DHT22;6087;48.982;12.064;2023-09-08T08:51:44;20.10;1.00
12053;DHT22;6087;48.982;12.064;2023-09-08T08:54:13;20.20;1.00
12053;DHT22;6087;48.982;12.064;2023-09-08T08:56:41;20.20;1.00
12053;DHT22;6087;48.982;12.064;2023-09-08T08:59:09;20.20;1.00
12053;DHT22;6087;48.982;12.064;2023-09-08T09:01:36;20.20;1.00
12053;DHT22;6087;48.982;12.064;2023-09-08T09:04:05;20.30;1.00
12053;DHT22;6087;48.982;12.064;2023-09-08T09:06:34;20.30;1.00
12053;DHT22;6087;48.982;12.064;2023-09-08T09:09:01;20.30;1.00
12053;DHT22;6087;48.982;12.064;2023-09-08T09:11:30;20.30;1.00
12053;DHT22;6087;48.982;12.064;2023-09-08T09:13:57;20.40;1.00
12053;DHT22;6087;48.982;12.064;2023-09-08T09:16:24;20.40;1.00
12053;DHT22;6087;48.982;12.064;2023-09-08T09:18:55;20.30;1.00
12053;DHT22;6087;48.982;12.064;2023-09-08T09:21:22;20.30;1.00
12053;DHT22;6087;48.982;12.064;2023-09-08T09:23:51;20.40;1.00
12053;DHT22;6087;48.982;12.064;2023-09-08T09:26:25;20.40;1.00
12053;DHT22;6087;48.982;12.064;2023-09-08T09:28:52;20.50;1.00
12053;DHT22;6087;48.982;12.064;2023-09-08T09:31:23;20.50;1.00
12053;DHT22;6087;48.982;12.064;2023-09-08T09:34:02;20.50;1.00
12053;DHT22;6087;48.982;12.064;2023-09-08T09:36:31;20.50;1.00
12053;DHT22;6087;48.982;12.064;2023-09-08T09:39:00;20.50;1.00
12053;DHT22;6087;48.982;12.064;2023-09-08T09:41:28;20.50;1.00
12053;DHT22;6087;48.982;12.064;2023-09-08T09:43:56;20.60;1.00
12053;DHT22;6087;48.982;12.064;2023-09-08T09:46:23;20.60;1.00
12053;DHT22;6087;48.982;12.064;2023-09-08T09:48:51;20.60;1.00
12053;DHT22;6087;48.982;12.064;2023-09-08T09:51:22;20.60;1.00
12053;DHT22;6087;48.982;12.064;2023-09-08T09:53:49;20.60;1.00
12053;DHT22;6087;48.982;12.064;2023-09-08T09:56:18;20.60;1.00
12053;DHT22;6087;48.982;12.064;2023-09-08T09:58:47;20.70;1.00
12053;DHT22;6087;48.982;12.064;2023-09-08T10:01:17;20.70;1.00
12053;DHT22;6087;48.982;12.064;2023-09-08T10:03:45;20.70;1.00
12053;DHT22;6087;48.982;12.064;2023-09-08T10:06:13;20.60;1.00
12053;DHT22;6087;48.982;12.064;2023-09-08T10:08:42;20.70;1.00
12053;DHT22;6087;48.982;12.064;2023-09-08T10:11:10;20.70;1.00
12053;DHT22;6087;48.982;12.064;2023-09-08T10:13:43;20.70;1.00
12053;DHT22;6087;48.982;12.064;2023-09-08T10:16:15;20.80;1.00
12053;DHT22;6087;48.982;12.064;2023-09-08T10:18:44;20.80;1.00
12053;DHT22;6087;48.982;12.064;2023-09-08T10:21:13;20.80;1.00
12053;DHT22;6087;48.982;12.064;2023-09-08T10:23:49;20.90;1.00
12053;DHT22;6087;48.982;12.064;2023-09-08T10:26:22;20.90;1.00
12053;DHT22;6087;48.982;12.064;2023-09-08T10:28:55;21.00;1.00
12053;DHT22;6087;48.982;12.064;2023-09-08T10:31:24;21.00;1.00
12053;DHT22;6087;48.982;12.064;2023-09-08T10:33:52;21.00;1.00
12053;DHT22;6087;48.982;12.064;2023-09-08T10:36:19;21.10;1.00
12053;DHT22;6087;48.982;12.064;2023-09-08T10:38:46;21.10;1.00
12053;DHT22;6087;48.982;12.064;2023-09-08T10:41:28;21.10;1.00
12053;DHT22;6087;48.982;12.064;2023-09-08T10:44:02;21.10;1.00
12053;DHT22;6087;48.982;12.064;2023-09-08T10:46:31;21.20;1.00
12053;DHT22;6087;48.982;12.064;2023-09-08T10:49:02;21.20;1.00
12053;DHT22;6087;48.982;12.064;2023-09-08T10:51:30;21.20;1.00
12053;DHT22;6087;48.982;12.064;2023-09-08T10:53:57;21.30;1.00
12053;DHT22;6087;48.982;12.064;2023-09-08T10:56:28;21.30;1.00
12053;DHT22;6087;48.982;12.064;2023-09-08T10:58:55;21.40;1.00
12053;DHT22;6087;48.982;12.064;2023-09-08T11:01:23;21.50;1.00
12053;DHT22;6087;48.982;12.064;2023-09-08T11:03:53;21.50;1.00
12053;DHT22;6087;48.982;12.064;2023-09-08T11:06:21;21.50;1.00
12053;DHT22;6087;48.982;12.064;2023-09-08T11:08:49;21.60;1.00
12053;DHT22;6087;48.982;12.064;2023-09-08T11:11:18;21.60;1.00
12053;DHT22;6087;48.982;12.064;2023-09-08T11:13:45;21.70;1.00
12053;DHT22;6087;48.982;12.064;2023-09-08T11:16:13;21.70;1.00
12053;DHT22;6087;48.982;12.064;2023-09-08T11:18:42;21.80;1.00
12053;DHT22;6087;48.982;12.064;2023-09-08T11:21:10;21.80;1.00
12053;DHT22;6087;48.982;12.064;2023-09-08T11:23:38;21.80;1.00
12053;DHT22;6087;48.982;12.064;2023-09-08T11:26:06;21.90;1.00
12053;DHT22;6087;48.982;12.064;2023-09-08T11:28:34;21.90;1.00
12053;DHT22;6087;48.982;12.064;2023-09-08T11:31:01;22.00;1.00
12053;DHT22;6087;48.982;12.064;2023-09-08T11:33:33;22.10;1.00
12053;DHT22;6087;48.982;12.064;2023-09-08T11:36:11;22.20;1.00
12053;DHT22;6087;48.982;12.064;2023-09-08T11:38:39;22.20;1.00
12053;DHT22;6087;48.982;12.064;2023-09-08T11:41:07;22.30;1.00
12053;DHT22;6087;48.982;12.064;2023-09-08T11:43:34;22.30;1.00
12053;DHT22;6087;48.982;12.064;2023-09-08T11:46:01;22.40;1.00
12053;DHT22;6087;48.982;12.064;2023-09-08T11:48:28;22.50;1.00
12053;DHT22;6087;48.982;12.064;2023-09-08T11:50:56;22.60;1.00
12053;DHT22;6087;48.982;12.064;2023-09-08T11:53:30;22.80;1.00
12053;DHT22;6087;48.982;12.064;2023-09-08T11:55:59;22.80;1.00
12053;DHT22;6087;48.982;12.064;2023-09-08T11:58:29;22.90;1.00
12053;DHT22;6087;48.982;12.064;2023-09-08T12:00:57;23.00;1.00
12053;DHT22;6087;48.982;12.064;2023-09-08T12:03:24;23.00;1.00
12053;DHT22;6087;48.982;12.064;2023-09-08T12:05:52;23.10;1.00
12053;DHT22;6087;48.982;12.064;2023-09-08T12:08:20;23.20;1.00
12053;DHT22;6087;48.982;12.064;2023-09-08T12:10:53;23.20;1.00
12053;DHT22;6087;48.982;12.064;2023-09-08T12:13:21;23.40;1.00
12053;DHT22;6087;48.982;12.064;2023-09-08T12:15:48;23.40;1.00
12053;DHT22;6087;48.982;12.064;2023-09-08T12:18:15;23.50;1.00
12053;DHT22;6087;48.982;12.064;2023-09-08T12:20:43;23.60;1.00
12053;DHT22;6087;48.982;12.064;2023-09-08T12:23:16;23.80;1.00
12053;DHT22;6087;48.982;12.064;2023-09-08T12:25:45;23.80;1.00
12053;DHT22;6087;48.982;12.064;2023-09-08T12:28:15;24.00;1.00
12053;DHT22;6087;48.982;12.064;2023-09-08T12:30:42;24.10;1.00
12053;DHT22;6087;48.982;12.064;2023-09-08T12:33:09;24.20;1.00
12053;DHT22;6087;48.982;12.064;2023-09-08T12:35:37;24.40;1.00
12053;DHT22;6087;48.982;12.064;2023-09-08T12:38:05;24.50;1.00
12053;DHT22;6087;48.982;12.064;2023-09-08T12:40:35;24.60;1.00
12053;DHT22;6087;48.982;12.064;2023-09-08T12:43:02;24.90;1.00
12053;DHT22;6087;48.982;12.064;2023-09-08T12:45:36;25.00;1.00
12053;DHT22;6087;48.982;12.064;2023-09-08T12:48:03;25.10;1.00
12053;DHT22;6087;48.982;12.064;2023-09-08T12:50:34;25.30;1.00
12053;DHT22;6087;48.982;12.064;2023-09-08T12:53:01;25.40;1.00
12053;DHT22;6087;48.982;12.064;2023-09-08T12:55:31;25.60;1.00
12053;DHT22;6087;48.982;12.064;2023-09-08T12:57:58;25.60;1.00
12053;DHT22;6087;48.982;12.064;2023-09-08T13:00:28;25.80;1.00
12053;DHT22;6087;48.982;12.064;2023-09-08T13:02:59;25.90;1.00
12053;DHT22;6087;48.982;12.064;2023-09-08T13:05:39;26.10;1.00
12053;DHT22;6087;48.982;12.064;2023-09-08T13:08:09;26.10;1.00
12053;DHT22;6087;48.982;12.064;2023-09-08T13:10:36;26.20;1.00
12053;DHT22;6087;48.982;12.064;2023-09-08T13:13:04;26.30;1.00
12053;DHT22;6087;48.982;12.064;2023-09-08T13:15:30;26.40;1.00
12053;DHT22;6087;48.982;12.064;2023-09-08T13:17:59;26.50;1.00
12053;DHT22;6087;48.982;12.064;2023-09-08T13:20:26;26.60;1.00
12053;DHT22;6087;48.982;12.064;2023-09-08T13:22:53;26.60;1.00
12053;DHT22;6087;48.982;12.064;2023-09-08T13:25:20;26.70;1.00
12053;DHT22;6087;48.982;12.064;2023-09-08T13:27:47;26.80;1.00
12053;DHT22;6087;48.982;12.064;2023-09-08T13:30:15;26.90;1.00
12053;DHT22;6087;48.982;12.064;2023-09-08T13:32:43;26.90;1.00
12053;DHT22;6087;48.982;12.064;2023-09-08T13:35:12;27.00;1.00
12053;DHT22;6087;48.982;12.064;2023-09-08T13:37:38;27.00;1.00
12053;DHT22;6087;48.982;12.064;2023-09-08T13:40:07;27.00;1.00
12053;DHT22;6087;48.982;12.064;2023-09-08T13:42:33;27.10;1.00
12053;DHT22;6087;48.982;12.064;2023-09-08T13:45:00;27.10;1.00
12053;DHT22;6087;48.982;12.064;2023-09-08T13:47:28;27.10;1.00
12053;DHT22;6087;48.982;12.064;2023-09-08T13:49:55;27.10;1.00
12053;DHT22;6087;48.982;12.064;2023-09-08T13:52:23;27.10;1.00
12053;DHT22;6087;48.982;12.064;2023-09-08T13:54:50;27.10;1.00
12053;DHT22;6087;48.982;12.064;2023-09-08T13:57:17;27.00;1.00
12053;DHT22;6087;48.982;12.064;2023-09-08T13:59:45;27.00;1.00
12053;DHT22;6087;48.982;12.064;2023-09-08T14:02:12;27.00;1.00
12053;DHT22;6087;48.982;12.064;2023-09-08T14:04:38;27.00;1.00
12053;DHT22;6087;48.982;12.064;2023-09-08T14:07:08;27.00;1.00
12053;DHT22;6087;48.982;12.064;2023-09-08T14:09:36;27.00;1.00
12053;DHT22;6087;48.982;12.064;2023-09-08T14:12:04;27.00;1.00
12053;DHT22;6087;48.982;12.064;2023-09-08T14:14:31;27.00;1.00
12053;DHT22;6087;48.982;12.064;2023-09-08T14:16:57;26.90;1.00
12053;DHT22;6087;48.982;12.064;2023-09-08T14:19:24;26.90;1.00
12053;DHT22;6087;48.982;12.064;2023-09-08T14:21:51;26.80;1.00
12053;DHT22;6087;48.982;12.064;2023-09-08T14:24:18;26.90;1.00
12053;DHT22;6087;48.982;12.064;2023-09-08T14:26:46;26.90;1.00
12053;DHT22;6087;48.982;12.064;2023-09-08T14:29:13;26.80;1.00
12053;DHT22;6087;48.982;12.064;2023-09-08T14:31:40;26.80;1.00
12053;DHT22;6087;48.982;12.064;2023-09-08T14:34:08;26.70;1.00
12053;DHT22;6087;48.982;12.064;2023-09-08T14:36:35;26.60;1.00
12053;DHT22;6087;48.982;12.064;2023-09-08T14:39:02;26.60;1.00
12053;DHT22;6087;48.982;12.064;2023-09-08T14:41:29;26.60;1.00
12053;DHT22;6087;48.982;12.064;2023-09-08T14:43:58;26.60;1.00
12053;DHT22;6087;48.982;12.064;2023-09-08T14:46:25;26.50;1.00
12053;DHT22;6087;48.982;12.064;2023-09-08T14:48:51;26.50;1.00
12053;DHT22;6087;48.982;12.064;2023-09-08T14:51:18;26.50;1.00
12053;DHT22;6087;48.982;12.064;2023-09-08T14:53:45;26.50;1.00
12053;DHT22;6087;48.982;12.064;2023-09-08T14:56:12;26.40;1.00
12053;DHT22;6087;48.982;12.064;2023-09-08T14:58:39;26.40;1.00
12053;DHT22;6087;48.982;12.064;2023-09-08T15:01:08;26.30;1.00
12053;DHT22;6087;48.982;12.064;2023-09-08T15:03:35;26.30;1.00
12053;DHT22;6087;48.982;12.064;2023-09-08T15:06:02;26.30;1.00
12053;DHT22;6087;48.982;12.064;2023-09-08T15:08:29;26.20;1.00
12053;DHT22;6087;48.982;12.064;2023-09-08T15:10:56;26.20;1.00
12053;DHT22;6087;48.982;12.064;2023-09-08T15:13:23;26.10;1.00
12053;DHT22;6087;48.982;12.064;2023-09-08T15:15:50;26.10;1.00
12053;DHT22;6087;48.982;12.064;2023-09-08T15:18:19;26.10;1.00
12053;DHT22;6087;48.982;12.064;2023-09-08T15:20:51;26.10;1.00
12053;DHT22;6087;48.982;12.064;2023-09-08T15:23:18;26.00;1.00
12053;DHT22;6087;48.982;12.064;2023-09-08T15:25:51;26.00;1.00
12053;DHT22;6087;48.982;12.064;2023-09-08T15:28:18;25.90;1.00
12053;DHT22;6087;48.982;12.064;2023-09-08T15:30:47;25.90;1.00
12053;DHT22;6087;48.982;12.064;2023-09-08T15:33:14;25.90;1.00
12053;DHT22;6087;48.982;12.064;2023-09-08T15:35:42;25.90;1.00
12053;DHT22;6087;48.982;12.064;2023-09-08T15:38:09;25.80;1.00
12053;DHT22;6087;48.982;12.064;2023-09-08T15:40:37;25.80;1.00
12053;DHT22;6087;48.982;12.064;2023-09-08T15:43:04;25.80;1.00
12053;DHT22;6087;48.982;12.064;2023-09-08T15:45:31;25.70;1.00
12053;DHT22;6087;48.982;12.064;2023-09-08T15:47:58;25.70;1.00
12053;DHT22;6087;48.982;12.064;2023-09-08T15:50:25;25.60;1.00
12053;DHT22;6087;48.982;12.064;2023-09-08T15:52:54;25.60;1.00